Pride Of Kent — MQCJ2 — position and weather

sailwx.info

Track history (hours):
 
Tides and Currents Weather Stations Pressure Air Temp Water Temp Dewpoint Dewpoint Depression Visibility Wind Speed Wind Dir Waves Ship Positions

Pride Of Kent

Operator: P & O Ferries

Last reported at 2015-Sep-03 01:13 UTC. Time now 2015-Sep-03 02:30 UTC.
Position N 51°07' E 001°20'.

Length 180 m; draft 6 m.

Type: Passenger vessel. MMSI: 232009000.

Date/timePositionNaut miles runAvg speedWind from/ knotsBaromVisibWave heightAir tempDewpointWater temp
2015-Sep-03 01:13N 51°07' E 001°20'6 8.4
2015-Sep-03 00:33N 51°05' E 001°28'1413.9
2015-Sep-02 23:33N 50°58' E 001°47'2 2.3
2015-Sep-02 22:33N 50°58' E 001°51'1413.6
2015-Sep-02 21:34N 51°02' E 001°30'9 8.5
2015-Sep-02 20:33N 51°07' E 001°20'9 9.1
2015-Sep-02 19:33N 51°04' E 001°33'1312.6
2015-Sep-02 18:33N 50°58' E 001°51'5 4.9
2015-Sep-02 17:33N 50°58' E 001°43'1717.3
2015-Sep-02 16:33N 51°07' E 001°20'1 1.1
2015-Sep-02 15:33N 51°07' E 001°22'1717.3
2015-Sep-02 14:34N 50°58' E 001°45'4 4.0
2015-Sep-02 13:34N 50°58' E 001°51'1111.4
2015-Sep-02 12:33N 50°60' E 001°34'11 7.6
2015-Sep-02 11:04N 51°07' E 001°20'713.1
2015-Sep-02 10:34N 51°04' E 001°30'1515.0
2015-Sep-02 09:33N 50°58' E 001°51'1 1.0
2015-Sep-02 08:33N 50°58' E 001°50'1716.8
2015-Sep-02 07:34N 51°05' E 001°25'4 3.7
2015-Sep-02 06:29N 51°07' E 001°20'1011.3
2015-Sep-02 05:33N 51°02' E 001°35'1111.2
2015-Sep-02 04:33N 50°58' E 001°51'0 0.3
2015-Sep-02 03:33N 50°58' E 001°51'1615.6
2015-Sep-02 02:33N 51°03' E 001°27'6 5.0
2015-Sep-02 01:21N 51°07' E 001°20'1013.3
2015-Sep-02 00:33N 51°03' E 001°35'1111.0
2015-Sep-01 23:33N 50°58' E 001°51'1 0.8
2015-Sep-01 22:34N 50°58' E 001°50'1616.5
2015-Sep-01 21:34N 51°05' E 001°26'4 4.3
2015-Sep-01 20:33N 51°07' E 001°20'1616.0
2015-Sep-01 19:34N 50°59' E 001°42'6 6.2
2015-Sep-01 18:34N 50°58' E 001°51'8 7.6
2015-Sep-01 17:34N 50°59' E 001°39'1514.4
2015-Sep-01 16:32N 51°07' E 001°20'3 3.5
2015-Sep-01 15:34N 51°07' E 001°25'1717.0
2015-Sep-01 14:34N 50°58' E 001°49'2 1.7
2015-Sep-01 13:33N 50°58' E 001°51'1313.1
2015-Sep-01 12:33N 51°02' E 001°32'9 6.8
2015-Sep-01 11:13N 51°07' E 001°20'913.8
2015-Sep-01 10:33N 51°05' E 001°34'1312.6
2015-Sep-01 09:33N 50°58' E 001°51'3 2.7
2015-Sep-01 08:33N 50°58' E 001°47'1817.7
2015-Sep-01 07:34N 51°06' E 001°22'2 1.4
2015-Sep-01 06:23N 51°07' E 001°20'4 5.1
2015-Sep-01 05:33N 51°03' E 001°18'4 4.2
2015-Sep-01 04:33N 51°07' E 001°20'2 1.7
2015-Sep-01 03:34N 51°07' E 001°23'1716.8
2015-Sep-01 02:33N 50°58' E 001°45'4 3.3
2015-Sep-01 01:29N 50°58' E 001°51'8 8.3
2015-Sep-01 00:33N 50°58' E 001°39'1514.4
2015-Aug-31 23:32N 51°07' E 001°20'5 5.1
2015-Aug-31 22:33N 51°06' E 001°28'1716.6
2015-Aug-31 21:33N 50°58' E 001°51'0 0.2
2015-Aug-31 20:33N 50°58' E 001°51'9 9.5
2015-Aug-31 19:33N 50°57' E 001°36'1411.8
2015-Aug-31 18:20N 51°07' E 001°20'6 7.5
2015-Aug-31 17:34N 51°05' E 001°28'1615.8
2015-Aug-31 16:33N 50°58' E 001°51'0 0.1
2015-Aug-31 15:33N 50°58' E 001°51'2 2.4
2015-Aug-31 14:33N 50°58' E 001°48'9 9.0
2015-Aug-31 13:33N 50°60' E 001°34'9 4.7
2015-Aug-31 11:33N 51°07' E 001°23'1817.8
2015-Aug-31 10:33N 50°58' E 001°48'2 1.9
2015-Aug-31 09:33N 50°58' E 001°51'1111.2
2015-Aug-31 08:34N 51°01' E 001°34'7 3.7
2015-Aug-31 06:33N 51°06' E 001°26'1817.5
2015-Aug-31 05:34N 50°58' E 001°51'2 1.9
2015-Aug-31 04:33N 50°58' E 001°48'1515.1
2015-Aug-31 03:33N 51°05' E 001°26'5 4.3
2015-Aug-31 02:30N 51°07' E 001°20'1414.9
2015-Aug-31 01:34N 51°01' E 001°39'8 7.8
2015-Aug-31 00:33N 50°58' E 001°51'0 0.0
2015-Aug-30 23:33N 50°58' E 001°51'0 0.0
2015-Aug-30 22:33N 50°58' E 001°51'0 0.1
2015-Aug-30 21:32N 50°58' E 001°51'6 5.9
2015-Aug-30 20:34N 51°01' E 001°44'2 1.6
2015-Aug-30 19:33N 50°60' E 001°44'1 1.3
2015-Aug-30 18:33N 50°59' E 001°42'3 2.8
2015-Aug-30 17:33N 50°58' E 001°46'1515.5
2015-Aug-30 16:33N 51°05' E 001°25'3 3.4
2015-Aug-30 15:33N 51°07' E 001°20'1716.6
2015-Aug-30 14:33N 50°59' E 001°43'5 5.4
2015-Aug-30 13:33N 50°58' E 001°51'10 9.9
2015-Aug-30 12:34N 51°01' E 001°36'12 8.2
2015-Aug-30 11:04N 51°07' E 001°20'713.5
2015-Aug-30 10:33N 51°05' E 001°30'1514.8
2015-Aug-30 09:33N 50°58' E 001°51'1 1.0
2015-Aug-30 08:34N 50°58' E 001°50'1716.8
2015-Aug-30 07:34N 51°05' E 001°25'4 3.6
2015-Aug-30 06:28N 51°07' E 001°20'4 4.3
2015-Aug-30 05:33N 51°06' E 001°26'1817.7
2015-Aug-30 04:34N 50°58' E 001°51'1 0.9
2015-Aug-30 03:33N 50°58' E 001°50'1616.1
2015-Aug-30 02:33N 51°06' E 001°27'1 0.7
2015-Aug-30 00:33N 51°07' E 001°25'1616.2
2015-Aug-29 23:33N 50°58' E 001°47'2 2.3
2015-Aug-29 22:34N 50°58' E 001°51'1818.5
2015-Aug-29 21:34N 51°06' E 001°24'3 2.7
2015-Aug-29 20:33N 51°07' E 001°20'1717.3
2015-Aug-29 19:34N 50°58' E 001°44'4 4.4
2015-Aug-29 18:33N 50°58' E 001°51'9 8.8
2015-Aug-29 17:34N 50°59' E 001°37'14 9.8
2015-Aug-29 16:10N 51°07' E 001°20'4 6.9
2015-Aug-29 15:34N 51°06' E 001°26'1717.5
2015-Aug-29 14:33N 50°58' E 001°51'0 0.1
2015-Aug-29 13:33N 50°58' E 001°51'1515.5
2015-Aug-29 12:33N 51°04' E 001°29'6 5.4
2015-Aug-29 11:23N 51°07' E 001°20'8 9.9
2015-Aug-29 10:33N 51°04' E 001°32'1413.6
2015-Aug-29 09:33N 50°58' E 001°51'1 1.1
2015-Aug-29 08:34N 50°58' E 001°50'1817.8
2015-Aug-29 07:33N 51°06' E 001°24'3 2.8
2015-Aug-29 06:31N 51°07' E 001°20'1111.2
2015-Aug-29 05:33N 51°02' E 001°35'1110.8
2015-Aug-29 04:33N 50°58' E 001°51'1 1.4
2015-Aug-29 03:33N 50°58' E 001°49'1616.1
2015-Aug-29 02:33N 51°05' E 001°26'4 3.5
2015-Aug-29 01:20N 51°07' E 001°20'6 7.4
2015-Aug-29 00:33N 51°07' E 001°29'1514.5
2015-Aug-28 23:34N 50°58' E 001°48'2 1.5
2015-Aug-28 22:34N 50°58' E 001°51'1414.1
2015-Aug-28 21:33N 51°02' E 001°29'7 5.8
2015-Aug-28 20:16N 51°07' E 001°20'1114.9
2015-Aug-28 19:34N 51°02' E 001°35'1110.9
2015-Aug-28 18:33N 50°58' E 001°51'8 8.3
2015-Aug-28 17:33N 50°57' E 001°38'1512.9
2015-Aug-28 16:23N 51°07' E 001°20'4 4.7
2015-Aug-28 15:33N 51°07' E 001°26'1817.7
2015-Aug-28 14:34N 50°58' E 001°51'0 0.1
2015-Aug-28 13:33N 50°58' E 001°51'1717.5
2015-Aug-28 12:33N 51°05' E 001°26'4 3.6
2015-Aug-28 11:23N 51°07' E 001°20'1113.8
2015-Aug-28 10:33N 51°02' E 001°36'1010.3
2015-Aug-28 09:33N 50°58' E 001°51'5 4.6
2015-Aug-28 08:34N 50°58' E 001°44'18 8.2
2015-Aug-28 06:23N 51°07' E 001°20'1214.0
2015-Aug-28 05:34N 51°01' E 001°36'1010.1
2015-Aug-28 04:33N 50°58' E 001°51'2 1.6
2015-Aug-28 03:33N 50°58' E 001°49'1616.3
2015-Aug-28 02:33N 51°05' E 001°25'4 3.5
2015-Aug-28 01:27N 51°07' E 001°20'1314.2
2015-Aug-28 00:34N 51°01' E 001°38'9 8.5
2015-Aug-27 23:30N 50°58' E 001°51'4 4.2
2015-Aug-27 22:33N 50°58' E 001°45'16 8.0
2015-Aug-27 20:34N 51°07' E 001°24'1717.4
2015-Aug-27 19:33N 50°58' E 001°48'2 2.0
2015-Aug-27 18:33N 50°58' E 001°51'1010.3
2015-Aug-27 17:34N 50°60' E 001°35'1211.2
2015-Aug-27 16:29N 51°07' E 001°20'4 4.3
2015-Aug-27 15:33N 51°06' E 001°26'1817.6
2015-Aug-27 14:33N 50°58' E 001°51'0 0.2
2015-Aug-27 13:33N 50°58' E 001°51'1615.5
2015-Aug-27 12:33N 51°04' E 001°29'6 5.2
2015-Aug-27 11:21N 51°07' E 001°20'1013.0
2015-Aug-27 10:34N 51°03' E 001°35'1111.4
2015-Aug-27 09:33N 50°58' E 001°51'2 1.8
2015-Aug-27 08:32N 50°58' E 001°48'1818.4
2015-Aug-27 07:34N 51°06' E 001°23'2 1.9
2015-Aug-27 06:28N 51°07' E 001°20'1213.2
2015-Aug-27 05:33N 51°02' E 001°37'10 9.5
2015-Aug-27 04:34N 50°58' E 001°51'5 4.6
2015-Aug-27 03:34N 50°58' E 001°44'1817.6
2015-Aug-27 02:33N 51°07' E 001°20'0 0.1
2015-Aug-27 01:21N 51°07' E 001°20'911.2
2015-Aug-27 00:34N 51°05' E 001°34'1313.0
2015-Aug-26 23:33N 50°58' E 001°51'7 7.1
2015-Aug-26 22:33N 50°58' E 001°40'13 6.4
2015-Aug-26 20:34N 51°07' E 001°25'1716.8
2015-Aug-26 19:33N 50°58' E 001°47'2 2.2
2015-Aug-26 18:33N 50°58' E 001°51'1212.2
2015-Aug-26 17:34N 51°02' E 001°33'10 8.5
2015-Aug-26 16:26N 51°07' E 001°20'7 7.5
2015-Aug-26 15:33N 51°05' E 001°30'1515.2
2015-Aug-26 14:33N 50°58' E 001°51'0 0.3
2015-Aug-26 13:33N 50°58' E 001°51'1716.6
2015-Aug-26 12:33N 51°05' E 001°27'5 4.3
2015-Aug-26 11:24N 51°07' E 001°20'910.8
2015-Aug-26 10:33N 51°04' E 001°33'1312.7
2015-Aug-26 09:34N 50°58' E 001°51'2 1.8
2015-Aug-26 08:33N 50°58' E 001°48'1717.3
2015-Aug-26 07:33N 51°06' E 001°24'3 2.4
2015-Aug-26 06:26N 51°07' E 001°20'1011.4
2015-Aug-26 05:34N 51°03' E 001°34'1211.6
2015-Aug-26 04:33N 50°58' E 001°51'1 0.7
2015-Aug-26 03:33N 50°58' E 001°50'1717.0
2015-Aug-26 02:34N 51°04' E 001°24'5 3.3
2015-Aug-26 01:11N 51°07' E 001°20'812.7
2015-Aug-26 00:34N 51°04' E 001°31'1413.6
2015-Aug-25 23:34N 50°58' E 001°51'6 5.8
2015-Aug-25 22:33N 50°58' E 001°42'1613.9
2015-Aug-25 21:23N 51°07' E 001°20'2 2.8
2015-Aug-25 20:33N 51°07' E 001°24'1716.8
2015-Aug-25 19:33N 50°58' E 001°46'3 2.9
2015-Aug-25 18:33N 50°58' E 001°51'1413.7
2015-Aug-25 17:34N 51°03' E 001°31'8 6.0
2015-Aug-25 16:14N 51°07' E 001°20'710.2
2015-Aug-25 15:33N 51°08' E 001°31'1515.2
2015-Aug-25 14:33N 50°58' E 001°50'1 0.8
2015-Aug-25 13:33N 50°58' E 001°51'1413.6
2015-Aug-25 12:33N 51°02' E 001°31'9 8.8
2015-Aug-25 11:33N 51°07' E 001°20'9 9.2
2015-Aug-25 10:33N 51°04' E 001°34'1212.5
2015-Aug-25 09:33N 50°58' E 001°51'3 3.1
2015-Aug-25 08:33N 50°58' E 001°46'1818.4
2015-Aug-25 07:33N 51°07' E 001°21'0 0.5
2015-Aug-25 06:30N 51°07' E 001°20'1010.8
2015-Aug-25 05:33N 51°03' E 001°35'1111.4
2015-Aug-25 04:33N 50°58' E 001°51'1 0.5
2015-Aug-25 03:34N 50°58' E 001°50'1716.5
2015-Aug-25 02:33N 51°05' E 001°26'5 3.4
2015-Aug-25 01:12N 51°07' E 001°20'812.2
2015-Aug-25 00:33N 51°05' E 001°32'1313.0
2015-Aug-24 23:33N 50°58' E 001°50'1 0.7
2015-Aug-24 22:34N 50°58' E 001°51'1717.3
2015-Aug-24 21:34N 51°05' E 001°26'4 4.0
2015-Aug-24 20:32N 51°07' E 001°20'1616.5
2015-Aug-24 19:33N 50°59' E 001°42'6 5.6
2015-Aug-24 18:33N 50°58' E 001°51'1110.9
2015-Aug-24 17:33N 51°01' E 001°34'5 2.7
2015-Aug-24 15:34N 51°05' E 001°29'1615.8
2015-Aug-24 14:33N 50°58' E 001°51'0 0.0
2015-Aug-24 13:33N 50°58' E 001°51'1313.4
2015-Aug-24 12:33N 51°00' E 001°30'10 9.7
2015-Aug-24 11:33N 51°07' E 001°20'8 7.7
2015-Aug-24 10:33N 51°04' E 001°31'1414.0
2015-Aug-24 09:33N 50°58' E 001°51'1 1.4
2015-Aug-24 08:34N 50°58' E 001°49'1818.0
2015-Aug-24 07:34N 51°06' E 001°23'2 2.3
2015-Aug-24 06:33N 51°07' E 001°20'1111.1
2015-Aug-24 05:33N 51°03' E 001°36'1110.5
2015-Aug-24 04:33N 50°58' E 001°51'2 2.2
2015-Aug-24 03:33N 50°58' E 001°48'1514.8
2015-Aug-24 02:33N 51°05' E 001°27'5 4.5
2015-Aug-24 01:29N 51°07' E 001°20'  
Track history (hours):
 
Tides and Currents Weather Stations Pressure Air Temp Water Temp Dewpoint Dewpoint Depression Visibility Wind Speed Wind Dir Waves Ship Positions

Pride Of Kent

Operator: P & O Ferries

Last reported at 2015-Sep-03 01:13 UTC. Time now 2015-Sep-03 02:30 UTC.
Position N 51°07' E 001°20'.

Length 180 m; draft 6 m.

Type: Passenger vessel. MMSI: 232009000.

Date/timePositionNaut miles runAvg speedWind from/ knotsBaromVisibWave heightAir tempDewpointWater temp
2015-Sep-03 01:13N 51°07' E 001°20'6 8.4
2015-Sep-03 00:33N 51°05' E 001°28'1413.9
2015-Sep-02 23:33N 50°58' E 001°47'2 2.3
2015-Sep-02 22:33N 50°58' E 001°51'1413.6
2015-Sep-02 21:34N 51°02' E 001°30'9 8.5
2015-Sep-02 20:33N 51°07' E 001°20'9 9.1
2015-Sep-02 19:33N 51°04' E 001°33'1312.6
2015-Sep-02 18:33N 50°58' E 001°51'5 4.9
2015-Sep-02 17:33N 50°58' E 001°43'1717.3
2015-Sep-02 16:33N 51°07' E 001°20'1 1.1
2015-Sep-02 15:33N 51°07' E 001°22'1717.3
2015-Sep-02 14:34N 50°58' E 001°45'4 4.0
2015-Sep-02 13:34N 50°58' E 001°51'1111.4
2015-Sep-02 12:33N 50°60' E 001°34'11 7.6
2015-Sep-02 11:04N 51°07' E 001°20'713.1
2015-Sep-02 10:34N 51°04' E 001°30'1515.0
2015-Sep-02 09:33N 50°58' E 001°51'1 1.0
2015-Sep-02 08:33N 50°58' E 001°50'1716.8
2015-Sep-02 07:34N 51°05' E 001°25'4 3.7
2015-Sep-02 06:29N 51°07' E 001°20'1011.3
2015-Sep-02 05:33N 51°02' E 001°35'1111.2
2015-Sep-02 04:33N 50°58' E 001°51'0 0.3
2015-Sep-02 03:33N 50°58' E 001°51'1615.6
2015-Sep-02 02:33N 51°03' E 001°27'6 5.0
2015-Sep-02 01:21N 51°07' E 001°20'1013.3
2015-Sep-02 00:33N 51°03' E 001°35'1111.0
2015-Sep-01 23:33N 50°58' E 001°51'1 0.8
2015-Sep-01 22:34N 50°58' E 001°50'1616.5
2015-Sep-01 21:34N 51°05' E 001°26'4 4.3
2015-Sep-01 20:33N 51°07' E 001°20'1616.0
2015-Sep-01 19:34N 50°59' E 001°42'6 6.2
2015-Sep-01 18:34N 50°58' E 001°51'8 7.6
2015-Sep-01 17:34N 50°59' E 001°39'1514.4
2015-Sep-01 16:32N 51°07' E 001°20'3 3.5
2015-Sep-01 15:34N 51°07' E 001°25'1717.0
2015-Sep-01 14:34N 50°58' E 001°49'2 1.7
2015-Sep-01 13:33N 50°58' E 001°51'1313.1
2015-Sep-01 12:33N 51°02' E 001°32'9 6.8
2015-Sep-01 11:13N 51°07' E 001°20'913.8
2015-Sep-01 10:33N 51°05' E 001°34'1312.6
2015-Sep-01 09:33N 50°58' E 001°51'3 2.7
2015-Sep-01 08:33N 50°58' E 001°47'1817.7
2015-Sep-01 07:34N 51°06' E 001°22'2 1.4
2015-Sep-01 06:23N 51°07' E 001°20'4 5.1
2015-Sep-01 05:33N 51°03' E 001°18'4 4.2
2015-Sep-01 04:33N 51°07' E 001°20'2 1.7
2015-Sep-01 03:34N 51°07' E 001°23'1716.8
2015-Sep-01 02:33N 50°58' E 001°45'4 3.3
2015-Sep-01 01:29N 50°58' E 001°51'8 8.3
2015-Sep-01 00:33N 50°58' E 001°39'1514.4
2015-Aug-31 23:32N 51°07' E 001°20'5 5.1
2015-Aug-31 22:33N 51°06' E 001°28'1716.6
2015-Aug-31 21:33N 50°58' E 001°51'0 0.2
2015-Aug-31 20:33N 50°58' E 001°51'9 9.5
2015-Aug-31 19:33N 50°57' E 001°36'1411.8
2015-Aug-31 18:20N 51°07' E 001°20'6 7.5
2015-Aug-31 17:34N 51°05' E 001°28'1615.8
2015-Aug-31 16:33N 50°58' E 001°51'0 0.1
2015-Aug-31 15:33N 50°58' E 001°51'2 2.4
2015-Aug-31 14:33N 50°58' E 001°48'9 9.0
2015-Aug-31 13:33N 50°60' E 001°34'9 4.7
2015-Aug-31 11:33N 51°07' E 001°23'1817.8
2015-Aug-31 10:33N 50°58' E 001°48'2 1.9
2015-Aug-31 09:33N 50°58' E 001°51'1111.2
2015-Aug-31 08:34N 51°01' E 001°34'7 3.7
2015-Aug-31 06:33N 51°06' E 001°26'1817.5
2015-Aug-31 05:34N 50°58' E 001°51'2 1.9
2015-Aug-31 04:33N 50°58' E 001°48'1515.1
2015-Aug-31 03:33N 51°05' E 001°26'5 4.3
2015-Aug-31 02:30N 51°07' E 001°20'1414.9
2015-Aug-31 01:34N 51°01' E 001°39'8 7.8
2015-Aug-31 00:33N 50°58' E 001°51'0 0.0
2015-Aug-30 23:33N 50°58' E 001°51'0 0.0
2015-Aug-30 22:33N 50°58' E 001°51'0 0.1
2015-Aug-30 21:32N 50°58' E 001°51'6 5.9
2015-Aug-30 20:34N 51°01' E 001°44'2 1.6
2015-Aug-30 19:33N 50°60' E 001°44'1 1.3
2015-Aug-30 18:33N 50°59' E 001°42'3 2.8
2015-Aug-30 17:33N 50°58' E 001°46'1515.5
2015-Aug-30 16:33N 51°05' E 001°25'3 3.4
2015-Aug-30 15:33N 51°07' E 001°20'1716.6
2015-Aug-30 14:33N 50°59' E 001°43'5 5.4
2015-Aug-30 13:33N 50°58' E 001°51'10 9.9
2015-Aug-30 12:34N 51°01' E 001°36'12 8.2
2015-Aug-30 11:04N 51°07' E 001°20'713.5
2015-Aug-30 10:33N 51°05' E 001°30'1514.8
2015-Aug-30 09:33N 50°58' E 001°51'1 1.0
2015-Aug-30 08:34N 50°58' E 001°50'1716.8
2015-Aug-30 07:34N 51°05' E 001°25'4 3.6
2015-Aug-30 06:28N 51°07' E 001°20'4 4.3
2015-Aug-30 05:33N 51°06' E 001°26'1817.7
2015-Aug-30 04:34N 50°58' E 001°51'1 0.9
2015-Aug-30 03:33N 50°58' E 001°50'1616.1
2015-Aug-30 02:33N 51°06' E 001°27'1 0.7
2015-Aug-30 00:33N 51°07' E 001°25'1616.2
2015-Aug-29 23:33N 50°58' E 001°47'2 2.3
2015-Aug-29 22:34N 50°58' E 001°51'1818.5
2015-Aug-29 21:34N 51°06' E 001°24'3 2.7
2015-Aug-29 20:33N 51°07' E 001°20'1717.3
2015-Aug-29 19:34N 50°58' E 001°44'4 4.4
2015-Aug-29 18:33N 50°58' E 001°51'9 8.8
2015-Aug-29 17:34N 50°59' E 001°37'14 9.8
2015-Aug-29 16:10N 51°07' E 001°20'4 6.9
2015-Aug-29 15:34N 51°06' E 001°26'1717.5
2015-Aug-29 14:33N 50°58' E 001°51'0 0.1
2015-Aug-29 13:33N 50°58' E 001°51'1515.5
2015-Aug-29 12:33N 51°04' E 001°29'6 5.4
2015-Aug-29 11:23N 51°07' E 001°20'8 9.9
2015-Aug-29 10:33N 51°04' E 001°32'1413.6
2015-Aug-29 09:33N 50°58' E 001°51'1 1.1
2015-Aug-29 08:34N 50°58' E 001°50'1817.8
2015-Aug-29 07:33N 51°06' E 001°24'3 2.8
2015-Aug-29 06:31N 51°07' E 001°20'1111.2
2015-Aug-29 05:33N 51°02' E 001°35'1110.8
2015-Aug-29 04:33N 50°58' E 001°51'1 1.4
2015-Aug-29 03:33N 50°58' E 001°49'1616.1
2015-Aug-29 02:33N 51°05' E 001°26'4 3.5
2015-Aug-29 01:20N 51°07' E 001°20'6 7.4
2015-Aug-29 00:33N 51°07' E 001°29'1514.5
2015-Aug-28 23:34N 50°58' E 001°48'2 1.5
2015-Aug-28 22:34N 50°58' E 001°51'1414.1
2015-Aug-28 21:33N 51°02' E 001°29'7 5.8
2015-Aug-28 20:16N 51°07' E 001°20'1114.9
2015-Aug-28 19:34N 51°02' E 001°35'1110.9
2015-Aug-28 18:33N 50°58' E 001°51'8 8.3
2015-Aug-28 17:33N 50°57' E 001°38'1512.9
2015-Aug-28 16:23N 51°07' E 001°20'4 4.7
2015-Aug-28 15:33N 51°07' E 001°26'1817.7
2015-Aug-28 14:34N 50°58' E 001°51'0 0.1
2015-Aug-28 13:33N 50°58' E 001°51'1717.5
2015-Aug-28 12:33N 51°05' E 001°26'4 3.6
2015-Aug-28 11:23N 51°07' E 001°20'1113.8
2015-Aug-28 10:33N 51°02' E 001°36'1010.3
2015-Aug-28 09:33N 50°58' E 001°51'5 4.6
2015-Aug-28 08:34N 50°58' E 001°44'18 8.2
2015-Aug-28 06:23N 51°07' E 001°20'1214.0
2015-Aug-28 05:34N 51°01' E 001°36'1010.1
2015-Aug-28 04:33N 50°58' E 001°51'2 1.6
2015-Aug-28 03:33N 50°58' E 001°49'1616.3
2015-Aug-28 02:33N 51°05' E 001°25'4 3.5
2015-Aug-28 01:27N 51°07' E 001°20'1314.2
2015-Aug-28 00:34N 51°01' E 001°38'9 8.5
2015-Aug-27 23:30N 50°58' E 001°51'4 4.2
2015-Aug-27 22:33N 50°58' E 001°45'16 8.0
2015-Aug-27 20:34N 51°07' E 001°24'1717.4
2015-Aug-27 19:33N 50°58' E 001°48'2 2.0
2015-Aug-27 18:33N 50°58' E 001°51'1010.3
2015-Aug-27 17:34N 50°60' E 001°35'1211.2
2015-Aug-27 16:29N 51°07' E 001°20'4 4.3
2015-Aug-27 15:33N 51°06' E 001°26'1817.6
2015-Aug-27 14:33N 50°58' E 001°51'0 0.2
2015-Aug-27 13:33N 50°58' E 001°51'1615.5
2015-Aug-27 12:33N 51°04' E 001°29'6 5.2
2015-Aug-27 11:21N 51°07' E 001°20'1013.0
2015-Aug-27 10:34N 51°03' E 001°35'1111.4
2015-Aug-27 09:33N 50°58' E 001°51'2 1.8
2015-Aug-27 08:32N 50°58' E 001°48'1818.4
2015-Aug-27 07:34N 51°06' E 001°23'2 1.9
2015-Aug-27 06:28N 51°07' E 001°20'1213.2
2015-Aug-27 05:33N 51°02' E 001°37'10 9.5
2015-Aug-27 04:34N 50°58' E 001°51'5 4.6
2015-Aug-27 03:34N 50°58' E 001°44'1817.6
2015-Aug-27 02:33N 51°07' E 001°20'0 0.1
2015-Aug-27 01:21N 51°07' E 001°20'911.2
2015-Aug-27 00:34N 51°05' E 001°34'1313.0
2015-Aug-26 23:33N 50°58' E 001°51'7 7.1
2015-Aug-26 22:33N 50°58' E 001°40'13 6.4
2015-Aug-26 20:34N 51°07' E 001°25'1716.8
2015-Aug-26 19:33N 50°58' E 001°47'2 2.2
2015-Aug-26 18:33N 50°58' E 001°51'1212.2
2015-Aug-26 17:34N 51°02' E 001°33'10 8.5
2015-Aug-26 16:26N 51°07' E 001°20'7 7.5
2015-Aug-26 15:33N 51°05' E 001°30'1515.2
2015-Aug-26 14:33N 50°58' E 001°51'0 0.3
2015-Aug-26 13:33N 50°58' E 001°51'1716.6
2015-Aug-26 12:33N 51°05' E 001°27'5 4.3
2015-Aug-26 11:24N 51°07' E 001°20'910.8
2015-Aug-26 10:33N 51°04' E 001°33'1312.7
2015-Aug-26 09:34N 50°58' E 001°51'2 1.8
2015-Aug-26 08:33N 50°58' E 001°48'1717.3
2015-Aug-26 07:33N 51°06' E 001°24'3 2.4
2015-Aug-26 06:26N 51°07' E 001°20'1011.4
2015-Aug-26 05:34N 51°03' E 001°34'1211.6
2015-Aug-26 04:33N 50°58' E 001°51'1 0.7
2015-Aug-26 03:33N 50°58' E 001°50'1717.0
2015-Aug-26 02:34N 51°04' E 001°24'5 3.3
2015-Aug-26 01:11N 51°07' E 001°20'812.7
2015-Aug-26 00:34N 51°04' E 001°31'1413.6
2015-Aug-25 23:34N 50°58' E 001°51'6 5.8
2015-Aug-25 22:33N 50°58' E 001°42'1613.9
2015-Aug-25 21:23N 51°07' E 001°20'2 2.8
2015-Aug-25 20:33N 51°07' E 001°24'1716.8
2015-Aug-25 19:33N 50°58' E 001°46'3 2.9
2015-Aug-25 18:33N 50°58' E 001°51'1413.7
2015-Aug-25 17:34N 51°03' E 001°31'8 6.0
2015-Aug-25 16:14N 51°07' E 001°20'710.2
2015-Aug-25 15:33N 51°08' E 001°31'1515.2
2015-Aug-25 14:33N 50°58' E 001°50'1 0.8
2015-Aug-25 13:33N 50°58' E 001°51'1413.6
2015-Aug-25 12:33N 51°02' E 001°31'9 8.8
2015-Aug-25 11:33N 51°07' E 001°20'9 9.2
2015-Aug-25 10:33N 51°04' E 001°34'1212.5
2015-Aug-25 09:33N 50°58' E 001°51'3 3.1
2015-Aug-25 08:33N 50°58' E 001°46'1818.4
2015-Aug-25 07:33N 51°07' E 001°21'0 0.5
2015-Aug-25 06:30N 51°07' E 001°20'1010.8
2015-Aug-25 05:33N 51°03' E 001°35'1111.4
2015-Aug-25 04:33N 50°58' E 001°51'1 0.5
2015-Aug-25 03:34N 50°58' E 001°50'1716.5
2015-Aug-25 02:33N 51°05' E 001°26'5 3.4
2015-Aug-25 01:12N 51°07' E 001°20'812.2
2015-Aug-25 00:33N 51°05' E 001°32'1313.0
2015-Aug-24 23:33N 50°58' E 001°50'1 0.7
2015-Aug-24 22:34N 50°58' E 001°51'1717.3
2015-Aug-24 21:34N 51°05' E 001°26'4 4.0
2015-Aug-24 20:32N 51°07' E 001°20'1616.5
2015-Aug-24 19:33N 50°59' E 001°42'6 5.6
2015-Aug-24 18:33N 50°58' E 001°51'1110.9
2015-Aug-24 17:33N 51°01' E 001°34'5 2.7
2015-Aug-24 15:34N 51°05' E 001°29'1615.8
2015-Aug-24 14:33N 50°58' E 001°51'0 0.0
2015-Aug-24 13:33N 50°58' E 001°51'1313.4
2015-Aug-24 12:33N 51°00' E 001°30'10 9.7
2015-Aug-24 11:33N 51°07' E 001°20'8 7.7
2015-Aug-24 10:33N 51°04' E 001°31'1414.0
2015-Aug-24 09:33N 50°58' E 001°51'1 1.4
2015-Aug-24 08:34N 50°58' E 001°49'1818.0
2015-Aug-24 07:34N 51°06' E 001°23'2 2.3
2015-Aug-24 06:33N 51°07' E 001°20'1111.1
2015-Aug-24 05:33N 51°03' E 001°36'1110.5
2015-Aug-24 04:33N 50°58' E 001°51'2 2.2
2015-Aug-24 03:33N 50°58' E 001°48'1514.8
2015-Aug-24 02:33N 51°05' E 001°27'5 4.5
2015-Aug-24 01:29N 51°07' E 001°20'  

Dump ship's entire track history